sensor_id;sensor_type;location;lat;lon;timestamp;P1;durP1;ratioP1;P2;durP2;ratioP2
25231;SDS011;13176;51.140;6.290;2023-04-24T00:01:02;14.32;;;13.63;;
25231;SDS011;13176;51.140;6.290;2023-04-24T00:03:29;13.02;;;12.23;;
25231;SDS011;13176;51.140;6.290;2023-04-24T00:05:56;11.43;;;10.77;;
25231;SDS011;13176;51.140;6.290;2023-04-24T00:08:22;10.07;;;9.38;;
25231;SDS011;13176;51.140;6.290;2023-04-24T00:10:50;9.65;;;9.15;;
25231;SDS011;13176;51.140;6.290;2023-04-24T00:13:18;10.95;;;10.25;;
25231;SDS011;13176;51.140;6.290;2023-04-24T00:15:44;10.77;;;10.05;;
25231;SDS011;13176;51.140;6.290;2023-04-24T00:18:11;12.05;;;11.35;;
25231;SDS011;13176;51.140;6.290;2023-04-24T00:20:37;11.90;;;11.10;;
25231;SDS011;13176;51.140;6.290;2023-04-24T00:23:03;13.23;;;12.32;;
25231;SDS011;13176;51.140;6.290;2023-04-24T00:25:30;12.68;;;11.73;;
25231;SDS011;13176;51.140;6.290;2023-04-24T00:27:56;12.88;;;11.85;;
25231;SDS011;13176;51.140;6.290;2023-04-24T00:30:23;13.15;;;12.25;;
25231;SDS011;13176;51.140;6.290;2023-04-24T00:32:49;12.57;;;11.80;;
25231;SDS011;13176;51.140;6.290;2023-04-24T00:35:16;13.70;;;12.50;;
25231;SDS011;13176;51.140;6.290;2023-04-24T00:37:42;13.45;;;12.55;;
25231;SDS011;13176;51.140;6.290;2023-04-24T00:40:09;15.57;;;14.68;;
25231;SDS011;13176;51.140;6.290;2023-04-24T00:42:36;16.27;;;15.18;;
25231;SDS011;13176;51.140;6.290;2023-04-24T00:45:03;17.35;;;16.25;;
25231;SDS011;13176;51.140;6.290;2023-04-24T00:47:30;15.88;;;14.88;;
25231;SDS011;13176;51.140;6.290;2023-04-24T00:50:01;17.45;;;16.15;;
25231;SDS011;13176;51.140;6.290;2023-04-24T00:52:28;16.30;;;15.30;;
25231;SDS011;13176;51.140;6.290;2023-04-24T00:54:57;16.35;;;15.13;;
25231;SDS011;13176;51.140;6.290;2023-04-24T00:57:23;15.57;;;14.38;;
25231;SDS011;13176;51.140;6.290;2023-04-24T00:59:51;14.73;;;13.82;;
25231;SDS011;13176;51.140;6.290;2023-04-24T01:02:18;15.50;;;14.25;;
25231;SDS011;13176;51.140;6.290;2023-04-24T01:04:46;14.38;;;13.38;;
25231;SDS011;13176;51.140;6.290;2023-04-24T01:07:13;14.05;;;12.98;;
25231;SDS011;13176;51.140;6.290;2023-04-24T01:09:40;14.55;;;13.50;;
25231;SDS011;13176;51.140;6.290;2023-04-24T01:12:09;16.60;;;15.40;;
25231;SDS011;13176;51.140;6.290;2023-04-24T01:14:36;16.83;;;15.35;;
25231;SDS011;13176;51.140;6.290;2023-04-24T01:17:03;17.25;;;15.98;;
25231;SDS011;13176;51.140;6.290;2023-04-24T01:19:30;17.02;;;15.57;;
25231;SDS011;13176;51.140;6.290;2023-04-24T01:21:57;17.25;;;15.65;;
25231;SDS011;13176;51.140;6.290;2023-04-24T01:24:26;16.48;;;15.35;;
25231;SDS011;13176;51.140;6.290;2023-04-24T01:26:53;16.88;;;15.68;;
25231;SDS011;13176;51.140;6.290;2023-04-24T01:29:19;16.98;;;15.77;;
25231;SDS011;13176;51.140;6.290;2023-04-24T01:31:46;18.75;;;17.23;;
25231;SDS011;13176;51.140;6.290;2023-04-24T01:34:13;20.17;;;18.58;;
25231;SDS011;13176;51.140;6.290;2023-04-24T01:36:40;19.33;;;17.95;;
25231;SDS011;13176;51.140;6.290;2023-04-24T01:39:07;20.90;;;19.38;;
25231;SDS011;13176;51.140;6.290;2023-04-24T01:41:34;21.23;;;19.50;;
25231;SDS011;13176;51.140;6.290;2023-04-24T01:44:00;20.45;;;19.05;;
25231;SDS011;13176;51.140;6.290;2023-04-24T01:46:27;22.50;;;20.67;;
25231;SDS011;13176;51.140;6.290;2023-04-24T01:48:54;23.63;;;21.73;;
25231;SDS011;13176;51.140;6.290;2023-04-24T01:51:22;21.83;;;20.02;;
25231;SDS011;13176;51.140;6.290;2023-04-24T01:53:48;26.75;;;24.63;;
25231;SDS011;13176;51.140;6.290;2023-04-24T01:56:15;24.95;;;22.80;;
25231;SDS011;13176;51.140;6.290;2023-04-24T01:58:42;24.88;;;22.98;;
25231;SDS011;13176;51.140;6.290;2023-04-24T02:01:09;24.85;;;22.95;;
25231;SDS011;13176;51.140;6.290;2023-04-24T02:03:41;27.30;;;25.05;;
25231;SDS011;13176;51.140;6.290;2023-04-24T02:06:08;25.50;;;23.52;;
25231;SDS011;13176;51.140;6.290;2023-04-24T02:08:34;26.90;;;24.70;;
25231;SDS011;13176;51.140;6.290;2023-04-24T02:11:01;27.55;;;25.42;;
25231;SDS011;13176;51.140;6.290;2023-04-24T02:13:28;25.45;;;23.23;;
25231;SDS011;13176;51.140;6.290;2023-04-24T02:15:54;25.75;;;23.77;;
25231;SDS011;13176;51.140;6.290;2023-04-24T02:18:21;26.70;;;24.80;;
25231;SDS011;13176;51.140;6.290;2023-04-24T02:20:48;26.65;;;24.80;;
25231;SDS011;13176;51.140;6.290;2023-04-24T02:23:15;29.67;;;27.42;;
25231;SDS011;13176;51.140;6.290;2023-04-24T02:25:41;28.65;;;26.38;;
25231;SDS011;13176;51.140;6.290;2023-04-24T02:28:08;25.27;;;23.42;;
25231;SDS011;13176;51.140;6.290;2023-04-24T02:30:34;25.58;;;23.52;;
25231;SDS011;13176;51.140;6.290;2023-04-24T02:33:00;27.52;;;25.52;;
25231;SDS011;13176;51.140;6.290;2023-04-24T02:35:27;27.23;;;25.13;;
25231;SDS011;13176;51.140;6.290;2023-04-24T02:37:53;26.58;;;24.38;;
25231;SDS011;13176;51.140;6.290;2023-04-24T02:40:20;27.05;;;24.85;;
25231;SDS011;13176;51.140;6.290;2023-04-24T02:42:46;23.77;;;22.05;;
25231;SDS011;13176;51.140;6.290;2023-04-24T02:45:12;26.95;;;24.90;;
25231;SDS011;13176;51.140;6.290;2023-04-24T02:47:39;25.55;;;23.35;;
25231;SDS011;13176;51.140;6.290;2023-04-24T02:50:05;25.15;;;23.00;;
25231;SDS011;13176;51.140;6.290;2023-04-24T02:52:32;25.23;;;23.15;;
25231;SDS011;13176;51.140;6.290;2023-04-24T02:54:59;25.83;;;23.80;;
25231;SDS011;13176;51.140;6.290;2023-04-24T02:57:25;26.33;;;24.27;;
25231;SDS011;13176;51.140;6.290;2023-04-24T02:59:52;28.17;;;26.02;;
25231;SDS011;13176;51.140;6.290;2023-04-24T03:02:18;29.13;;;26.88;;
25231;SDS011;13176;51.140;6.290;2023-04-24T03:04:44;28.30;;;26.17;;
25231;SDS011;13176;51.140;6.290;2023-04-24T03:07:11;28.25;;;26.33;;
25231;SDS011;13176;51.140;6.290;2023-04-24T03:09:38;26.67;;;24.80;;
25231;SDS011;13176;51.140;6.290;2023-04-24T03:12:04;26.13;;;24.20;;
25231;SDS011;13176;51.140;6.290;2023-04-24T03:14:30;29.65;;;27.23;;
25231;SDS011;13176;51.140;6.290;2023-04-24T03:16:57;28.27;;;26.02;;
25231;SDS011;13176;51.140;6.290;2023-04-24T03:19:24;28.45;;;26.38;;
25231;SDS011;13176;51.140;6.290;2023-04-24T03:21:50;26.85;;;24.77;;
25231;SDS011;13176;51.140;6.290;2023-04-24T03:24:17;28.15;;;25.77;;
25231;SDS011;13176;51.140;6.290;2023-04-24T03:26:43;28.58;;;26.33;;
25231;SDS011;13176;51.140;6.290;2023-04-24T03:29:09;29.15;;;26.92;;
25231;SDS011;13176;51.140;6.290;2023-04-24T03:31:36;26.38;;;24.17;;
25231;SDS011;13176;51.140;6.290;2023-04-24T03:34:02;26.98;;;25.08;;
25231;SDS011;13176;51.140;6.290;2023-04-24T03:36:29;27.38;;;25.40;;
25231;SDS011;13176;51.140;6.290;2023-04-24T03:38:56;25.65;;;23.55;;
25231;SDS011;13176;51.140;6.290;2023-04-24T03:41:22;25.92;;;23.88;;
25231;SDS011;13176;51.140;6.290;2023-04-24T03:43:48;25.38;;;23.17;;
25231;SDS011;13176;51.140;6.290;2023-04-24T03:46:15;24.10;;;22.35;;
25231;SDS011;13176;51.140;6.290;2023-04-24T03:48:42;22.42;;;20.67;;
25231;SDS011;13176;51.140;6.290;2023-04-24T03:51:08;22.60;;;20.83;;
25231;SDS011;13176;51.140;6.290;2023-04-24T03:53:35;22.85;;;21.00;;
25231;SDS011;13176;51.140;6.290;2023-04-24T03:56:01;22.30;;;20.60;;
25231;SDS011;13176;51.140;6.290;2023-04-24T03:58:28;23.77;;;21.70;;
25231;SDS011;13176;51.140;6.290;2023-04-24T04:00:54;22.70;;;20.83;;
25231;SDS011;13176;51.140;6.290;2023-04-24T04:03:22;20.90;;;19.23;;
25231;SDS011;13176;51.140;6.290;2023-04-24T04:05:49;20.67;;;18.90;;
25231;SDS011;13176;51.140;6.290;2023-04-24T04:08:16;20.05;;;18.23;;
25231;SDS011;13176;51.140;6.290;2023-04-24T04:10:42;22.42;;;20.83;;
25231;SDS011;13176;51.140;6.290;2023-04-24T04:13:09;22.60;;;20.90;;
25231;SDS011;13176;51.140;6.290;2023-04-24T04:15:35;24.67;;;23.10;;
25231;SDS011;13176;51.140;6.290;2023-04-24T04:18:02;26.80;;;25.10;;
25231;SDS011;13176;51.140;6.290;2023-04-24T04:20:29;26.55;;;24.55;;
25231;SDS011;13176;51.140;6.290;2023-04-24T04:22:55;26.17;;;24.48;;
25231;SDS011;13176;51.140;6.290;2023-04-24T04:25:22;29.60;;;27.67;;
25231;SDS011;13176;51.140;6.290;2023-04-24T04:27:49;30.02;;;28.08;;
25231;SDS011;13176;51.140;6.290;2023-04-24T04:30:17;31.08;;;29.08;;
25231;SDS011;13176;51.140;6.290;2023-04-24T04:32:44;31.88;;;29.60;;
25231;SDS011;13176;51.140;6.290;2023-04-24T04:35:10;31.60;;;29.48;;
25231;SDS011;13176;51.140;6.290;2023-04-24T04:37:37;31.98;;;30.00;;
25231;SDS011;13176;51.140;6.290;2023-04-24T04:40:04;31.38;;;29.38;;
25231;SDS011;13176;51.140;6.290;2023-04-24T04:42:37;35.30;;;33.10;;
25231;SDS011;13176;51.140;6.290;2023-04-24T04:45:07;39.60;;;36.97;;
25231;SDS011;13176;51.140;6.290;2023-04-24T04:47:37;38.28;;;35.85;;
25231;SDS011;13176;51.140;6.290;2023-04-24T04:50:04;40.90;;;38.35;;
25231;SDS011;13176;51.140;6.290;2023-04-24T04:52:31;46.92;;;43.90;;
25231;SDS011;13176;51.140;6.290;2023-04-24T04:54:57;49.90;;;46.72;;
25231;SDS011;13176;51.140;6.290;2023-04-24T04:57:24;59.78;;;55.88;;
25231;SDS011;13176;51.140;6.290;2023-04-24T04:59:51;56.13;;;52.47;;
25231;SDS011;13176;51.140;6.290;2023-04-24T05:02:17;61.65;;;57.78;;
25231;SDS011;13176;51.140;6.290;2023-04-24T05:04:44;69.03;;;64.80;;
25231;SDS011;13176;51.140;6.290;2023-04-24T05:07:12;79.20;;;74.10;;
25231;SDS011;13176;51.140;6.290;2023-04-24T05:09:38;80.88;;;75.82;;
25231;SDS011;13176;51.140;6.290;2023-04-24T05:12:05;79.40;;;74.68;;
25231;SDS011;13176;51.140;6.290;2023-04-24T05:14:31;79.32;;;74.43;;
25231;SDS011;13176;51.140;6.290;2023-04-24T05:16:57;78.90;;;74.18;;
25231;SDS011;13176;51.140;6.290;2023-04-24T05:19:24;80.00;;;75.18;;
25231;SDS011;13176;51.140;6.290;2023-04-24T05:21:51;74.93;;;70.30;;
25231;SDS011;13176;51.140;6.290;2023-04-24T05:24:17;76.13;;;71.40;;
25231;SDS011;13176;51.140;6.290;2023-04-24T05:26:43;67.55;;;63.50;;
25231;SDS011;13176;51.140;6.290;2023-04-24T05:29:10;61.97;;;57.95;;
25231;SDS011;13176;51.140;6.290;2023-04-24T05:31:37;67.47;;;63.65;;
25231;SDS011;13176;51.140;6.290;2023-04-24T05:34:04;69.53;;;65.40;;
25231;SDS011;13176;51.140;6.290;2023-04-24T05:36:31;67.35;;;63.13;;
25231;SDS011;13176;51.140;6.290;2023-04-24T05:38:59;63.72;;;59.83;;
25231;SDS011;13176;51.140;6.290;2023-04-24T05:41:25;71.97;;;67.82;;
25231;SDS011;13176;51.140;6.290;2023-04-24T05:43:52;77.88;;;73.20;;
25231;SDS011;13176;51.140;6.290;2023-04-24T05:46:19;79.13;;;74.30;;
25231;SDS011;13176;51.140;6.290;2023-04-24T05:48:46;79.57;;;74.95;;
25231;SDS011;13176;51.140;6.290;2023-04-24T05:51:12;82.53;;;77.15;;
25231;SDS011;13176;51.140;6.290;2023-04-24T05:53:38;90.03;;;84.60;;
25231;SDS011;13176;51.140;6.290;2023-04-24T05:56:05;90.13;;;84.65;;
25231;SDS011;13176;51.140;6.290;2023-04-24T05:58:31;89.82;;;84.28;;
25231;SDS011;13176;51.140;6.290;2023-04-24T06:00:58;93.13;;;87.35;;
25231;SDS011;13176;51.140;6.290;2023-04-24T06:03:27;94.80;;;88.90;;
25231;SDS011;13176;51.140;6.290;2023-04-24T06:05:53;93.88;;;87.97;;
25231;SDS011;13176;51.140;6.290;2023-04-24T06:08:20;97.20;;;91.28;;
25231;SDS011;13176;51.140;6.290;2023-04-24T06:10:46;95.50;;;89.72;;
25231;SDS011;13176;51.140;6.290;2023-04-24T06:13:13;94.97;;;88.90;;
25231;SDS011;13176;51.140;6.290;2023-04-24T06:15:39;106.13;;;99.45;;
25231;SDS011;13176;51.140;6.290;2023-04-24T06:18:06;110.90;;;104.03;;
25231;SDS011;13176;51.140;6.290;2023-04-24T06:20:33;115.45;;;108.25;;
25231;SDS011;13176;51.140;6.290;2023-04-24T06:23:00;119.53;;;112.07;;
25231;SDS011;13176;51.140;6.290;2023-04-24T06:25:26;114.88;;;107.85;;
25231;SDS011;13176;51.140;6.290;2023-04-24T06:27:53;133.93;;;125.53;;
25231;SDS011;13176;51.140;6.290;2023-04-24T06:30:20;143.52;;;134.82;;
25231;SDS011;13176;51.140;6.290;2023-04-24T06:32:47;126.70;;;118.93;;
25231;SDS011;13176;51.140;6.290;2023-04-24T06:35:14;134.90;;;126.72;;
25231;SDS011;13176;51.140;6.290;2023-04-24T06:37:40;130.45;;;122.45;;
25231;SDS011;13176;51.140;6.290;2023-04-24T06:40:08;140.23;;;131.23;;
25231;SDS011;13176;51.140;6.290;2023-04-24T06:42:35;138.32;;;129.68;;
25231;SDS011;13176;51.140;6.290;2023-04-24T06:45:05;147.40;;;138.45;;
25231;SDS011;13176;51.140;6.290;2023-04-24T06:47:32;127.80;;;120.15;;
25231;SDS011;13176;51.140;6.290;2023-04-24T06:49:58;148.98;;;139.52;;
25231;SDS011;13176;51.140;6.290;2023-04-24T06:52:25;102.95;;;96.60;;
25231;SDS011;13176;51.140;6.290;2023-04-24T06:54:51;130.65;;;122.75;;
25231;SDS011;13176;51.140;6.290;2023-04-24T06:57:18;133.02;;;125.05;;
25231;SDS011;13176;51.140;6.290;2023-04-24T06:59:46;128.77;;;120.43;;
25231;SDS011;13176;51.140;6.290;2023-04-24T07:02:12;117.50;;;110.38;;
25231;SDS011;13176;51.140;6.290;2023-04-24T07:04:39;105.00;;;98.78;;
25231;SDS011;13176;51.140;6.290;2023-04-24T07:07:06;108.30;;;101.80;;
25231;SDS011;13176;51.140;6.290;2023-04-24T07:09:32;95.32;;;89.35;;
25231;SDS011;13176;51.140;6.290;2023-04-24T07:12:01;72.68;;;68.53;;
25231;SDS011;13176;51.140;6.290;2023-04-24T07:14:27;82.10;;;77.38;;
25231;SDS011;13176;51.140;6.290;2023-04-24T07:16:54;71.07;;;67.05;;
25231;SDS011;13176;51.140;6.290;2023-04-24T07:19:20;96.70;;;90.63;;
25231;SDS011;13176;51.140;6.290;2023-04-24T07:21:46;102.07;;;96.22;;
25231;SDS011;13176;51.140;6.290;2023-04-24T07:24:13;105.13;;;98.80;;
25231;SDS011;13176;51.140;6.290;2023-04-24T07:26:40;105.15;;;98.95;;
25231;SDS011;13176;51.140;6.290;2023-04-24T07:29:06;120.07;;;112.75;;
25231;SDS011;13176;51.140;6.290;2023-04-24T07:31:33;115.15;;;108.35;;
25231;SDS011;13176;51.140;6.290;2023-04-24T07:34:00;118.95;;;111.70;;
25231;SDS011;13176;51.140;6.290;2023-04-24T07:36:27;106.90;;;100.63;;
25231;SDS011;13176;51.140;6.290;2023-04-24T07:38:54;144.57;;;134.52;;
25231;SDS011;13176;51.140;6.290;2023-04-24T07:41:22;133.65;;;125.72;;
25231;SDS011;13176;51.140;6.290;2023-04-24T07:43:50;152.93;;;142.60;;
25231;SDS011;13176;51.140;6.290;2023-04-24T07:46:17;156.93;;;147.40;;
25231;SDS011;13176;51.140;6.290;2023-04-24T07:48:44;141.50;;;132.85;;
25231;SDS011;13176;51.140;6.290;2023-04-24T07:51:10;169.05;;;158.50;;
25231;SDS011;13176;51.140;6.290;2023-04-24T07:53:39;148.10;;;139.10;;
25231;SDS011;13176;51.140;6.290;2023-04-24T07:56:06;135.60;;;127.53;;
25231;SDS011;13176;51.140;6.290;2023-04-24T07:58:33;192.02;;;179.85;;
25231;SDS011;13176;51.140;6.290;2023-04-24T08:01:02;160.23;;;150.63;;
25231;SDS011;13176;51.140;6.290;2023-04-24T08:03:31;127.53;;;119.82;;
25231;SDS011;13176;51.140;6.290;2023-04-24T08:05:58;138.85;;;130.40;;
25231;SDS011;13176;51.140;6.290;2023-04-24T08:08:25;129.13;;;121.22;;
25231;SDS011;13176;51.140;6.290;2023-04-24T08:10:51;119.70;;;112.43;;
25231;SDS011;13176;51.140;6.290;2023-04-24T08:13:18;129.10;;;121.28;;
25231;SDS011;13176;51.140;6.290;2023-04-24T08:15:45;138.57;;;130.18;;
25231;SDS011;13176;51.140;6.290;2023-04-24T08:18:11;166.18;;;154.80;;
25231;SDS011;13176;51.140;6.290;2023-04-24T08:20:39;161.18;;;151.55;;
25231;SDS011;13176;51.140;6.290;2023-04-24T08:23:06;144.85;;;135.55;;
25231;SDS011;13176;51.140;6.290;2023-04-24T08:25:33;123.63;;;116.13;;
25231;SDS011;13176;51.140;6.290;2023-04-24T08:28:05;117.53;;;110.22;;
25231;SDS011;13176;51.140;6.290;2023-04-24T08:30:32;134.70;;;126.32;;
25231;SDS011;13176;51.140;6.290;2023-04-24T08:32:58;119.97;;;112.55;;
25231;SDS011;13176;51.140;6.290;2023-04-24T08:35:25;130.75;;;122.82;;
25231;SDS011;13176;51.140;6.290;2023-04-24T08:37:52;143.73;;;134.80;;
25231;SDS011;13176;51.140;6.290;2023-04-24T08:40:21;128.48;;;120.45;;
25231;SDS011;13176;51.140;6.290;2023-04-24T08:42:53;146.85;;;136.15;;
25231;SDS011;13176;51.140;6.290;2023-04-24T08:45:20;110.57;;;103.32;;
25231;SDS011;13176;51.140;6.290;2023-04-24T08:47:47;167.88;;;149.00;;
25231;SDS011;13176;51.140;6.290;2023-04-24T08:50:15;131.98;;;123.40;;
25231;SDS011;13176;51.140;6.290;2023-04-24T08:52:42;147.82;;;137.70;;
25231;SDS011;13176;51.140;6.290;2023-04-24T08:55:10;131.13;;;122.63;;
25231;SDS011;13176;51.140;6.290;2023-04-24T08:57:36;116.47;;;109.30;;
25231;SDS011;13176;51.140;6.290;2023-04-24T09:00:06;152.65;;;142.68;;
25231;SDS011;13176;51.140;6.290;2023-04-24T09:02:44;120.68;;;113.18;;
25231;SDS011;13176;51.140;6.290;2023-04-24T09:05:13;134.27;;;125.90;;
25231;SDS011;13176;51.140;6.290;2023-04-24T09:07:41;156.80;;;145.05;;
25231;SDS011;13176;51.140;6.290;2023-04-24T09:10:14;138.18;;;129.50;;
25231;SDS011;13176;51.140;6.290;2023-04-24T09:12:41;137.82;;;128.68;;
25231;SDS011;13176;51.140;6.290;2023-04-24T09:15:12;167.00;;;156.18;;
25231;SDS011;13176;51.140;6.290;2023-04-24T09:17:39;157.23;;;147.32;;
25231;SDS011;13176;51.140;6.290;2023-04-24T09:20:06;156.90;;;147.00;;
25231;SDS011;13176;51.140;6.290;2023-04-24T09:22:33;183.30;;;171.40;;
25231;SDS011;13176;51.140;6.290;2023-04-24T09:25:03;152.30;;;142.57;;
25231;SDS011;13176;51.140;6.290;2023-04-24T09:27:32;145.90;;;136.50;;
25231;SDS011;13176;51.140;6.290;2023-04-24T09:29:59;170.98;;;160.10;;
25231;SDS011;13176;51.140;6.290;2023-04-24T09:32:26;178.70;;;166.98;;
25231;SDS011;13176;51.140;6.290;2023-04-24T09:37:38;152.05;;;142.52;;
25231;SDS011;13176;51.140;6.290;2023-04-24T09:40:16;166.00;;;155.50;;
25231;SDS011;13176;51.140;6.290;2023-04-24T09:42:56;173.93;;;162.88;;
25231;SDS011;13176;51.140;6.290;2023-04-24T09:45:27;145.23;;;135.80;;
25231;SDS011;13176;51.140;6.290;2023-04-24T09:48:04;110.90;;;103.50;;
25231;SDS011;13176;51.140;6.290;2023-04-24T09:50:32;151.90;;;142.07;;
25231;SDS011;13176;51.140;6.290;2023-04-24T09:53:04;172.50;;;161.63;;
25231;SDS011;13176;51.140;6.290;2023-04-24T09:55:38;136.65;;;127.97;;
25231;SDS011;13176;51.140;6.290;2023-04-24T09:58:07;114.20;;;107.03;;
25231;SDS011;13176;51.140;6.290;2023-04-24T10:00:34;88.22;;;82.57;;
25231;SDS011;13176;51.140;6.290;2023-04-24T10:03:01;86.78;;;80.80;;
25231;SDS011;13176;51.140;6.290;2023-04-24T10:08:10;85.40;;;79.50;;
25231;SDS011;13176;51.140;6.290;2023-04-24T10:10:43;82.32;;;77.00;;
25231;SDS011;13176;51.140;6.290;2023-04-24T10:13:12;85.93;;;80.18;;
25231;SDS011;13176;51.140;6.290;2023-04-24T10:15:41;88.30;;;82.55;;
25231;SDS011;13176;51.140;6.290;2023-04-24T10:18:08;89.95;;;83.97;;
25231;SDS011;13176;51.140;6.290;2023-04-24T10:20:37;87.00;;;81.45;;
25231;SDS011;13176;51.140;6.290;2023-04-24T10:23:05;96.18;;;88.22;;
25231;SDS011;13176;51.140;6.290;2023-04-24T10:25:38;86.53;;;80.78;;
25231;SDS011;13176;51.140;6.290;2023-04-24T10:28:05;105.18;;;96.88;;
25231;SDS011;13176;51.140;6.290;2023-04-24T10:30:35;80.57;;;75.70;;
25231;SDS011;13176;51.140;6.290;2023-04-24T10:33:02;94.25;;;88.03;;
25231;SDS011;13176;51.140;6.290;2023-04-24T10:35:31;94.07;;;87.97;;
25231;SDS011;13176;51.140;6.290;2023-04-24T10:38:08;94.28;;;88.05;;
25231;SDS011;13176;51.140;6.290;2023-04-24T10:40:41;99.22;;;92.43;;
25231;SDS011;13176;51.140;6.290;2023-04-24T10:43:08;109.28;;;101.93;;
25231;SDS011;13176;51.140;6.290;2023-04-24T10:45:38;115.18;;;107.30;;
25231;SDS011;13176;51.140;6.290;2023-04-24T10:48:06;104.90;;;98.07;;
25231;SDS011;13176;51.140;6.290;2023-04-24T10:50:47;109.07;;;101.53;;
25231;SDS011;13176;51.140;6.290;2023-04-24T10:53:20;97.25;;;90.93;;
25231;SDS011;13176;51.140;6.290;2023-04-24T10:58:40;100.72;;;94.18;;
25231;SDS011;13176;51.140;6.290;2023-04-24T11:01:24;56.00;;;51.85;;
25231;SDS011;13176;51.140;6.290;2023-04-24T11:03:56;44.33;;;41.47;;
25231;SDS011;13176;51.140;6.290;2023-04-24T11:09:10;37.33;;;34.67;;
25231;SDS011;13176;51.140;6.290;2023-04-24T11:11:44;31.63;;;29.42;;
25231;SDS011;13176;51.140;6.290;2023-04-24T11:14:15;31.73;;;29.35;;
25231;SDS011;13176;51.140;6.290;2023-04-24T11:16:46;32.33;;;29.70;;
25231;SDS011;13176;51.140;6.290;2023-04-24T11:19:20;28.67;;;26.25;;
25231;SDS011;13176;51.140;6.290;2023-04-24T11:21:58;22.70;;;20.70;;
25231;SDS011;13176;51.140;6.290;2023-04-24T11:27:29;28.80;;;26.40;;
25231;SDS011;13176;51.140;6.290;2023-04-24T11:30:02;28.15;;;25.95;;
25231;SDS011;13176;51.140;6.290;2023-04-24T11:35:00;25.33;;;23.38;;
25231;SDS011;13176;51.140;6.290;2023-04-24T11:37:48;27.00;;;25.17;;
25231;SDS011;13176;51.140;6.290;2023-04-24T11:40:19;21.40;;;19.92;;
25231;SDS011;13176;51.140;6.290;2023-04-24T11:42:49;20.50;;;19.20;;
25231;SDS011;13176;51.140;6.290;2023-04-24T11:45:18;21.58;;;20.17;;
25231;SDS011;13176;51.140;6.290;2023-04-24T11:47:48;21.73;;;19.88;;
25231;SDS011;13176;51.140;6.290;2023-04-24T11:50:16;19.98;;;18.45;;
25231;SDS011;13176;51.140;6.290;2023-04-24T11:52:46;16.98;;;15.52;;
25231;SDS011;13176;51.140;6.290;2023-04-24T11:57:42;11.80;;;11.00;;
25231;SDS011;13176;51.140;6.290;2023-04-24T12:00:17;7.65;;;6.55;;
25231;SDS011;13176;51.140;6.290;2023-04-24T12:02:48;6.90;;;6.22;;
25231;SDS011;13176;51.140;6.290;2023-04-24T12:05:20;7.93;;;7.03;;
25231;SDS011;13176;51.140;6.290;2023-04-24T12:10:22;8.25;;;6.35;;
25231;SDS011;13176;51.140;6.290;2023-04-24T12:12:52;6.88;;;6.22;;
25231;SDS011;13176;51.140;6.290;2023-04-24T12:15:22;6.72;;;5.45;;
25231;SDS011;13176;51.140;6.290;2023-04-24T12:17:52;6.80;;;5.55;;
25231;SDS011;13176;51.140;6.290;2023-04-24T12:20:26;7.97;;;7.25;;
25231;SDS011;13176;51.140;6.290;2023-04-24T12:22:56;7.70;;;6.70;;
25231;SDS011;13176;51.140;6.290;2023-04-24T12:25:25;7.88;;;6.53;;
25231;SDS011;13176;51.140;6.290;2023-04-24T12:27:54;7.65;;;7.05;;
25231;SDS011;13176;51.140;6.290;2023-04-24T12:30:30;9.48;;;7.50;;
25231;SDS011;13176;51.140;6.290;2023-04-24T12:32:59;8.73;;;7.90;;
25231;SDS011;13176;51.140;6.290;2023-04-24T12:35:31;8.93;;;8.30;;
25231;SDS011;13176;51.140;6.290;2023-04-24T12:38:06;8.30;;;7.63;;
25231;SDS011;13176;51.140;6.290;2023-04-24T12:41:00;9.77;;;8.15;;
25231;SDS011;13176;51.140;6.290;2023-04-24T12:43:36;8.32;;;7.63;;
25231;SDS011;13176;51.140;6.290;2023-04-24T12:46:04;7.55;;;6.90;;
25231;SDS011;13176;51.140;6.290;2023-04-24T12:48:31;7.68;;;6.80;;
25231;SDS011;13176;51.140;6.290;2023-04-24T12:50:58;6.32;;;5.72;;
25231;SDS011;13176;51.140;6.290;2023-04-24T12:53:27;8.38;;;7.28;;
25231;SDS011;13176;51.140;6.290;2023-04-24T12:55:55;6.10;;;5.45;;
25231;SDS011;13176;51.140;6.290;2023-04-24T12:58:27;7.30;;;6.38;;
25231;SDS011;13176;51.140;6.290;2023-04-24T13:00:57;6.95;;;5.15;;
25231;SDS011;13176;51.140;6.290;2023-04-24T13:03:23;5.22;;;4.72;;
25231;SDS011;13176;51.140;6.290;2023-04-24T13:06:05;5.80;;;5.30;;
25231;SDS011;13176;51.140;6.290;2023-04-24T13:08:32;6.15;;;5.50;;
25231;SDS011;13176;51.140;6.290;2023-04-24T13:10:58;7.55;;;5.50;;
25231;SDS011;13176;51.140;6.290;2023-04-24T13:13:25;6.05;;;5.45;;
25231;SDS011;13176;51.140;6.290;2023-04-24T13:15:51;5.88;;;5.30;;
25231;SDS011;13176;51.140;6.290;2023-04-24T13:18:18;6.15;;;5.38;;
25231;SDS011;13176;51.140;6.290;2023-04-24T13:20:44;7.78;;;5.78;;
25231;SDS011;13176;51.140;6.290;2023-04-24T13:23:13;8.50;;;5.53;;
25231;SDS011;13176;51.140;6.290;2023-04-24T13:25:41;7.80;;;6.88;;
25231;SDS011;13176;51.140;6.290;2023-04-24T13:28:08;6.95;;;6.28;;
25231;SDS011;13176;51.140;6.290;2023-04-24T13:30:34;8.20;;;6.32;;
25231;SDS011;13176;51.140;6.290;2023-04-24T13:33:01;7.38;;;6.53;;
25231;SDS011;13176;51.140;6.290;2023-04-24T13:35:29;9.40;;;6.03;;
25231;SDS011;13176;51.140;6.290;2023-04-24T13:37:57;5.78;;;5.20;;
25231;SDS011;13176;51.140;6.290;2023-04-24T13:40:23;6.72;;;6.13;;
25231;SDS011;13176;51.140;6.290;2023-04-24T13:42:50;5.65;;;5.15;;
25231;SDS011;13176;51.140;6.290;2023-04-24T13:45:17;6.88;;;5.82;;
25231;SDS011;13176;51.140;6.290;2023-04-24T13:47:50;11.55;;;6.20;;
25231;SDS011;13176;51.140;6.290;2023-04-24T13:50:18;7.75;;;5.90;;
25231;SDS011;13176;51.140;6.290;2023-04-24T13:52:47;8.38;;;4.95;;
25231;SDS011;13176;51.140;6.290;2023-04-24T13:55:13;6.15;;;5.65;;
25231;SDS011;13176;51.140;6.290;2023-04-24T13:57:40;8.10;;;5.75;;
25231;SDS011;13176;51.140;6.290;2023-04-24T14:00:14;6.07;;;5.43;;
25231;SDS011;13176;51.140;6.290;2023-04-24T14:02:44;6.82;;;4.60;;
25231;SDS011;13176;51.140;6.290;2023-04-24T14:05:12;5.70;;;5.20;;
25231;SDS011;13176;51.140;6.290;2023-04-24T14:07:42;6.88;;;6.28;;
25231;SDS011;13176;51.140;6.290;2023-04-24T14:10:09;6.60;;;5.95;;
25231;SDS011;13176;51.140;6.290;2023-04-24T14:12:36;6.07;;;5.47;;
25231;SDS011;13176;51.140;6.290;2023-04-24T14:15:03;8.27;;;7.43;;
25231;SDS011;13176;51.140;6.290;2023-04-24T14:17:30;7.30;;;5.80;;
25231;SDS011;13176;51.140;6.290;2023-04-24T14:19:57;6.90;;;6.20;;
25231;SDS011;13176;51.140;6.290;2023-04-24T14:22:26;6.63;;;5.70;;
25231;SDS011;13176;51.140;6.290;2023-04-24T14:24:52;5.40;;;5.00;;
25231;SDS011;13176;51.140;6.290;2023-04-24T14:27:19;6.22;;;5.72;;
25231;SDS011;13176;51.140;6.290;2023-04-24T14:29:45;6.57;;;6.03;;
25231;SDS011;13176;51.140;6.290;2023-04-24T14:32:11;6.55;;;5.90;;
25231;SDS011;13176;51.140;6.290;2023-04-24T14:34:40;6.70;;;6.13;;
25231;SDS011;13176;51.140;6.290;2023-04-24T14:37:07;6.15;;;5.57;;
25231;SDS011;13176;51.140;6.290;2023-04-24T14:39:34;6.18;;;5.60;;
25231;SDS011;13176;51.140;6.290;2023-04-24T14:42:00;5.68;;;4.80;;
25231;SDS011;13176;51.140;6.290;2023-04-24T14:44:29;5.60;;;5.20;;
25231;SDS011;13176;51.140;6.290;2023-04-24T14:46:55;7.00;;;6.15;;